Terminal Aerodrome Forecast
Issued by NWS Cleveland, OH

Home | Current Version | Previous Version | Graphics & Text | Print | Product List | Glossary Off
Versions: 1 2 3 4 5 6 7 8 9 10 11 12 13 14 15 16 17 18 19 20 21 22 23 24

000
FTUS41 KCLE 202100 AAA
TAFCLE
TAF AMD
KCLE 202116Z 2021/2124 23008KT P6SM SCT250
      TEMPO 2021/2023 VRB06KT
     FM210100 17005KT P6SM BKN250
     FM211400 20010KT P6SM SCT100 BKN250=

USA.gov is the U.S. government's official web portal to all federal, state and local government web resources and services.